createdAt,value
2019-03-20T00:00:47.259Z,99.90
2019-03-20T00:03:17.093Z,99.90
2019-03-20T00:05:46.927Z,99.90
2019-03-20T00:08:16.854Z,99.90
2019-03-20T00:10:46.689Z,99.90
2019-03-20T00:13:16.549Z,99.90
2019-03-20T00:15:46.397Z,99.90
2019-03-20T00:18:16.308Z,99.90
2019-03-20T00:20:46.145Z,99.90
2019-03-20T00:23:16.081Z,99.90
2019-03-20T00:25:46.066Z,99.70
2019-03-20T00:28:15.962Z,99.90
2019-03-20T00:30:45.802Z,99.90
2019-03-20T00:33:15.633Z,99.90
2019-03-20T00:35:45.467Z,99.90
2019-03-20T00:38:15.324Z,99.90
2019-03-20T00:40:45.293Z,99.90
2019-03-20T00:43:15.159Z,99.90
2019-03-20T00:45:45.009Z,99.90
2019-03-20T00:48:14.885Z,99.90
2019-03-20T00:50:44.893Z,99.90
2019-03-20T00:53:14.754Z,99.90
2019-03-20T00:55:44.610Z,99.90
2019-03-20T00:58:14.539Z,99.90
2019-03-20T01:00:44.474Z,99.90
2019-03-20T01:03:14.321Z,99.90
2019-03-20T01:05:44.166Z,99.90
2019-03-20T01:08:14.099Z,99.90
2019-03-20T01:10:43.938Z,99.90
2019-03-20T01:13:13.757Z,99.90
2019-03-20T01:15:43.618Z,99.90
2019-03-20T01:18:13.553Z,99.90
2019-03-20T01:20:43.463Z,99.90
2019-03-20T01:23:13.366Z,99.90
2019-03-20T01:25:43.282Z,99.90
2019-03-20T01:28:13.210Z,99.90
2019-03-20T01:30:43.043Z,99.90
2019-03-20T01:33:13.324Z,99.90
2019-03-20T01:35:43.452Z,99.90
2019-03-20T01:38:13.487Z,99.90
2019-03-20T01:40:43.331Z,99.90
2019-03-20T01:43:13.253Z,99.90
2019-03-20T01:45:43.112Z,99.90
2019-03-20T01:48:13.040Z,99.90
2019-03-20T01:50:42.863Z,99.90
2019-03-20T01:53:12.799Z,99.90
2019-03-20T01:55:42.666Z,99.90
2019-03-20T01:58:12.594Z,99.90
2019-03-20T02:00:42.514Z,99.90
2019-03-20T02:03:12.355Z,99.90
2019-03-20T02:05:42.402Z,99.90
2019-03-20T02:08:12.261Z,99.90
2019-03-20T02:10:42.090Z,99.90
2019-03-20T02:13:11.936Z,99.90
2019-03-20T02:15:41.884Z,99.90
2019-03-20T02:18:11.811Z,99.90
2019-03-20T02:20:41.665Z,99.90
2019-03-20T02:23:11.779Z,99.90
2019-03-20T02:25:42.371Z,99.90
2019-03-20T02:28:12.729Z,99.90
2019-03-20T02:30:43.216Z,99.90
2019-03-20T02:33:13.346Z,99.90
2019-03-20T02:35:51.584Z,99.90
2019-03-20T02:38:17.526Z,99.90
2019-03-20T02:40:47.743Z,99.90
2019-03-20T02:43:18.059Z,99.90
2019-03-20T02:46:07.885Z,99.90
2019-03-20T02:48:38.494Z,99.90
2019-03-20T02:51:08.702Z,99.90
2019-03-20T02:53:38.892Z,99.90
2019-03-20T02:56:09.108Z,99.90
2019-03-20T02:58:39.334Z,99.90
2019-03-20T03:01:09.693Z,99.90
2019-03-20T03:03:40.111Z,99.90
2019-03-20T03:06:10.308Z,99.90
2019-03-20T03:08:40.516Z,99.90
2019-03-20T03:11:10.682Z,99.90
2019-03-20T03:13:40.897Z,99.90
2019-03-20T03:16:11.092Z,99.90
2019-03-20T03:18:41.383Z,99.90
2019-03-20T03:21:11.560Z,99.90
2019-03-20T03:23:41.999Z,99.90
2019-03-20T03:26:12.219Z,99.90
2019-03-20T03:28:42.383Z,99.90
2019-03-20T03:31:12.513Z,99.90
2019-03-20T03:33:42.784Z,99.90
2019-03-20T03:36:21.004Z,99.90
2019-03-20T03:38:45.061Z,99.90
2019-03-20T03:41:15.236Z,99.90
2019-03-20T03:43:45.356Z,99.90
2019-03-20T03:46:15.533Z,99.90
2019-03-20T03:48:46.050Z,99.90
2019-03-20T03:51:17.097Z,99.90
2019-03-20T03:53:47.317Z,99.90
2019-03-20T03:56:17.649Z,99.90
2019-03-20T03:58:47.866Z,99.90
2019-03-20T04:01:18.096Z,99.90
2019-03-20T04:03:48.268Z,99.90
2019-03-20T04:06:18.481Z,99.90
2019-03-20T04:08:48.869Z,99.90
2019-03-20T04:11:19.200Z,99.90
2019-03-20T04:13:49.059Z,99.90
2019-03-20T04:16:18.882Z,99.90
2019-03-20T04:18:48.784Z,99.90
2019-03-20T04:21:18.622Z,99.90
2019-03-20T04:23:48.520Z,99.90
2019-03-20T04:26:18.345Z,99.90
2019-03-20T04:28:48.240Z,99.90
2019-03-20T04:31:18.095Z,99.90
2019-03-20T04:33:48.028Z,99.90
2019-03-20T04:36:17.858Z,99.90
2019-03-20T04:38:47.807Z,99.90
2019-03-20T04:41:17.646Z,99.90
2019-03-20T04:43:47.476Z,99.90
2019-03-20T04:46:17.323Z,99.90
2019-03-20T04:48:47.548Z,99.90
2019-03-20T04:51:17.402Z,99.90
2019-03-20T04:53:47.249Z,99.90
2019-03-20T04:56:17.085Z,99.90
2019-03-20T04:58:47.019Z,99.90
2019-03-20T05:01:16.866Z,99.90
2019-03-20T05:03:46.708Z,99.90
2019-03-20T05:06:16.564Z,99.90
2019-03-20T05:08:46.480Z,99.90
2019-03-20T05:11:16.338Z,99.90
2019-03-20T05:13:46.179Z,99.90
2019-03-20T05:16:16.015Z,99.90
2019-03-20T05:18:45.936Z,99.90
2019-03-20T05:21:16.612Z,99.90
2019-03-20T05:23:46.460Z,99.90
2019-03-20T05:26:16.295Z,99.90
2019-03-20T05:28:46.628Z,99.90
2019-03-20T05:31:37.231Z,99.90
2019-03-20T05:34:07.108Z,99.90
2019-03-20T05:36:37.439Z,99.90
2019-03-20T05:39:08.895Z,99.90
2019-03-20T05:41:38.753Z,99.90
2019-03-20T05:44:08.780Z,99.90
2019-03-20T05:46:38.736Z,99.90
2019-03-20T05:49:08.670Z,99.90
2019-03-20T05:51:38.543Z,99.90
2019-03-20T05:54:08.422Z,99.90
2019-03-20T05:56:38.265Z,99.90
2019-03-20T05:59:09.143Z,99.90
2019-03-20T06:01:39.010Z,99.90
2019-03-20T06:04:08.947Z,99.90
2019-03-20T06:06:39.039Z,99.90
2019-03-20T06:09:09.524Z,99.90
2019-03-20T06:11:39.639Z,99.90
2019-03-20T06:14:09.908Z,99.90
2019-03-20T06:16:40.116Z,99.90
2019-03-20T06:19:10.331Z,99.90
2019-03-20T06:21:40.575Z,99.90
2019-03-20T06:24:10.984Z,99.90
2019-03-20T06:26:59.981Z,99.90
2019-03-20T06:29:32.467Z,99.90
2019-03-20T06:32:02.662Z,99.90
2019-03-20T06:34:32.628Z,99.90
2019-03-20T06:37:03.000Z,99.90
2019-03-20T06:39:33.188Z,99.90
2019-03-20T06:42:03.445Z,99.90
2019-03-20T06:44:33.293Z,99.90
2019-03-20T06:47:03.172Z,99.90
2019-03-20T06:49:33.014Z,99.90
2019-03-20T06:52:02.870Z,99.90
2019-03-20T06:54:32.814Z,99.90
2019-03-20T06:57:03.159Z,99.90
2019-03-20T07:00:09.835Z,99.90
2019-03-20T07:02:42.209Z,99.90
2019-03-20T07:05:49.109Z,99.90
2019-03-20T07:08:20.170Z,99.90
2019-03-20T07:11:10.813Z,99.90
2019-03-20T07:13:40.945Z,99.90
2019-03-20T07:16:30.179Z,99.90
2019-03-20T07:19:00.227Z,99.90
2019-03-20T07:21:30.151Z,99.90
2019-03-20T07:24:00.112Z,99.90
2019-03-20T07:26:30.057Z,99.90
2019-03-20T07:29:00.093Z,99.90
2019-03-20T07:31:30.344Z,99.90
2019-03-20T07:34:00.580Z,99.90
2019-03-20T07:36:31.158Z,99.90
2019-03-20T07:39:01.208Z,99.90
2019-03-20T07:41:31.164Z,99.90
2019-03-20T07:44:01.171Z,99.90
2019-03-20T07:46:31.237Z,99.90
2019-03-20T07:49:01.177Z,99.90
2019-03-20T07:51:31.208Z,99.90
2019-03-20T07:54:01.088Z,99.90
2019-03-20T07:56:31.090Z,99.90
2019-03-20T07:59:01.140Z,99.90
2019-03-20T08:01:31.136Z,99.90
2019-03-20T08:04:01.175Z,99.90
2019-03-20T08:06:31.159Z,99.90
2019-03-20T08:09:01.649Z,99.90
2019-03-20T08:11:31.739Z,99.90
2019-03-20T08:14:02.227Z,99.90
2019-03-20T08:16:33.203Z,99.90
2019-03-20T08:19:04.767Z,99.90
2019-03-20T08:21:36.112Z,99.90
2019-03-20T08:24:06.514Z,99.90
2019-03-20T08:26:36.908Z,99.90
2019-03-20T08:29:08.520Z,99.90
2019-03-20T08:31:38.699Z,99.90
2019-03-20T08:34:08.887Z,99.90
2019-03-20T08:36:39.293Z,99.50
2019-03-20T08:39:09.372Z,99.90
2019-03-20T08:41:43.271Z,98.90
2019-03-20T08:44:10.944Z,99.00
2019-03-20T08:46:41.018Z,99.90
2019-03-20T08:49:11.094Z,99.20
2019-03-20T08:51:41.023Z,99.90
2019-03-20T08:54:11.077Z,99.90
2019-03-20T08:56:41.074Z,99.90
2019-03-20T08:59:11.191Z,99.90
2019-03-20T09:01:41.097Z,99.90
2019-03-20T09:04:11.094Z,99.90
2019-03-20T09:06:41.016Z,98.10
2019-03-20T09:09:12.111Z,99.90
2019-03-20T09:11:42.101Z,99.90
2019-03-20T09:14:12.115Z,99.90
2019-03-20T09:16:42.079Z,99.90
2019-03-20T09:19:12.135Z,99.90
2019-03-20T09:21:42.164Z,99.90
2019-03-20T09:24:12.252Z,99.90
2019-03-20T09:26:42.486Z,99.90
2019-03-20T09:29:18.539Z,99.90
2019-03-20T09:31:44.143Z,99.90
2019-03-20T09:34:14.084Z,97.70
2019-03-20T09:36:44.247Z,94.00
2019-03-20T09:39:14.230Z,91.60
2019-03-20T09:41:44.277Z,92.50
2019-03-20T09:44:17.346Z,92.10
2019-03-20T09:46:47.206Z,91.70
2019-03-20T09:49:17.325Z,90.80
2019-03-20T09:51:47.903Z,89.30
2019-03-20T09:54:18.014Z,88.80
2019-03-20T09:56:48.041Z,89.70
2019-03-20T09:59:18.030Z,90.00
2019-03-20T10:01:48.279Z,87.40
2019-03-20T10:04:18.130Z,86.50
2019-03-20T10:06:47.990Z,88.00
2019-03-20T10:09:17.975Z,84.60
2019-03-20T10:11:47.873Z,86.00
2019-03-20T10:14:17.911Z,88.60
2019-03-20T10:16:47.775Z,83.10
2019-03-20T10:19:18.486Z,85.10
2019-03-20T10:21:48.367Z,81.40
2019-03-20T10:24:18.850Z,83.30
2019-03-20T10:26:48.657Z,81.50
2019-03-20T10:29:18.575Z,83.70
2019-03-20T10:31:48.486Z,80.40
2019-03-20T10:34:18.335Z,79.30
2019-03-20T10:36:48.197Z,78.90
2019-03-20T10:39:18.148Z,78.80
2019-03-20T10:41:47.978Z,78.50
2019-03-20T10:44:17.851Z,78.30
2019-03-20T10:46:47.739Z,77.80
2019-03-20T10:49:17.739Z,78.10
2019-03-20T10:51:48.036Z,78.40
2019-03-20T10:54:17.930Z,76.10
2019-03-20T10:56:47.874Z,76.00
2019-03-20T10:59:17.859Z,78.40
2019-03-20T11:01:47.727Z,75.00
2019-03-20T11:04:17.552Z,75.00
2019-03-20T11:06:47.504Z,74.80
2019-03-20T11:09:18.666Z,71.80
2019-03-20T11:11:48.712Z,74.20
2019-03-20T11:14:18.560Z,73.60
2019-03-20T11:16:48.414Z,69.40
2019-03-20T11:19:19.044Z,71.70
2019-03-20T11:21:49.205Z,68.60
2019-03-20T11:24:19.050Z,67.10
2019-03-20T11:26:49.097Z,67.30
2019-03-20T11:29:21.691Z,68.70
2019-03-20T11:31:51.981Z,70.60
2019-03-20T11:34:21.844Z,67.90
2019-03-20T11:36:52.270Z,69.40
2019-03-20T11:39:29.479Z,69.90
2019-03-20T11:41:53.687Z,70.80
2019-03-20T11:44:23.645Z,66.50
2019-03-20T11:46:53.710Z,67.50
2019-03-20T11:49:23.634Z,61.60
2019-03-20T11:51:53.567Z,60.10
2019-03-20T11:54:23.579Z,59.30
2019-03-20T11:56:53.423Z,58.80
2019-03-20T11:59:23.317Z,56.10
2019-03-20T12:01:53.220Z,56.60
2019-03-20T12:04:23.301Z,57.40
2019-03-20T12:06:53.884Z,57.90
2019-03-20T12:09:25.814Z,57.40
2019-03-20T12:11:55.780Z,56.60
2019-03-20T12:14:25.652Z,55.40
2019-03-20T12:16:55.669Z,53.50
2019-03-20T12:19:25.730Z,54.20
2019-03-20T12:21:55.630Z,50.60
2019-03-20T12:24:25.512Z,54.10
2019-03-20T12:26:55.370Z,54.00
2019-03-20T12:29:25.237Z,55.70
2019-03-20T12:31:55.101Z,55.00
2019-03-20T12:34:24.983Z,53.20
2019-03-20T12:36:56.636Z,55.30
2019-03-20T12:39:26.453Z,52.80
2019-03-20T12:41:56.328Z,51.70
2019-03-20T12:44:26.341Z,54.20
2019-03-20T12:46:56.202Z,54.20
2019-03-20T12:49:26.131Z,54.50
2019-03-20T12:51:56.029Z,54.50
2019-03-20T12:54:25.869Z,54.50
2019-03-20T12:56:55.714Z,54.20
2019-03-20T12:59:25.646Z,53.40
2019-03-20T13:01:55.512Z,54.40
2019-03-20T13:04:25.397Z,53.40
2019-03-20T13:06:55.246Z,50.70
2019-03-20T13:09:25.378Z,50.50
2019-03-20T13:11:55.203Z,50.70
2019-03-20T13:14:25.070Z,50.50
2019-03-20T13:16:54.933Z,48.90
2019-03-20T13:19:25.092Z,48.50
2019-03-20T13:21:55.032Z,49.60
2019-03-20T13:24:24.935Z,47.90
2019-03-20T13:26:54.842Z,46.90
2019-03-20T13:29:24.854Z,48.30
2019-03-20T13:31:54.714Z,48.70
2019-03-20T13:34:24.638Z,47.60
2019-03-20T13:36:54.480Z,48.30
2019-03-20T13:39:24.390Z,46.20
2019-03-20T13:41:54.313Z,46.10
2019-03-20T13:44:24.167Z,49.50
2019-03-20T13:46:54.006Z,49.20
2019-03-20T13:49:24.062Z,46.70
2019-03-20T13:51:54.012Z,45.70
2019-03-20T13:54:23.854Z,47.00
2019-03-20T13:56:53.782Z,47.10
2019-03-20T13:59:23.733Z,46.90
2019-03-20T14:01:54.093Z,46.60
2019-03-20T14:04:24.065Z,45.80
2019-03-20T14:06:54.078Z,45.30
2019-03-20T14:09:24.245Z,45.30
2019-03-20T14:11:54.499Z,45.50
2019-03-20T14:14:24.690Z,46.00
2019-03-20T14:16:54.543Z,46.40
2019-03-20T14:19:24.935Z,45.40
2019-03-20T14:21:55.292Z,46.10
2019-03-20T14:24:25.213Z,45.80
2019-03-20T14:26:55.073Z,45.00
2019-03-20T14:29:24.947Z,46.10
2019-03-20T14:31:54.906Z,46.00
2019-03-20T14:34:24.941Z,46.10
2019-03-20T14:36:55.428Z,46.40
2019-03-20T14:39:25.316Z,45.70
2019-03-20T14:41:55.174Z,45.70
2019-03-20T14:44:25.378Z,45.70
2019-03-20T14:46:55.209Z,45.90
2019-03-20T14:49:25.094Z,46.20
2019-03-20T14:51:54.954Z,46.30
2019-03-20T14:54:24.814Z,47.10
2019-03-20T14:56:54.750Z,46.20
2019-03-20T14:59:24.666Z,46.00
2019-03-20T15:01:54.529Z,47.90
2019-03-20T15:04:24.407Z,48.50
2019-03-20T15:06:54.250Z,49.30
2019-03-20T15:09:24.186Z,50.30
2019-03-20T15:11:54.061Z,48.40
2019-03-20T15:14:23.894Z,49.60
2019-03-20T15:16:53.777Z,49.80
2019-03-20T15:19:23.656Z,49.80
2019-03-20T15:21:53.573Z,49.20
2019-03-20T15:24:23.542Z,49.30
2019-03-20T15:26:53.415Z,49.90
2019-03-20T15:29:23.301Z,50.20
2019-03-20T15:31:53.162Z,51.20
2019-03-20T15:34:23.125Z,52.80
2019-03-20T15:36:53.009Z,54.40
2019-03-20T15:39:23.906Z,55.20
2019-03-20T15:41:53.777Z,56.70
2019-03-20T15:44:23.661Z,57.00
2019-03-20T15:46:53.542Z,56.30
2019-03-20T15:49:23.544Z,56.70
2019-03-20T15:51:53.390Z,55.70
2019-03-20T15:54:23.250Z,55.80
2019-03-20T15:56:53.347Z,55.50
2019-03-20T15:59:24.255Z,57.00
2019-03-20T16:01:54.129Z,57.30
2019-03-20T16:04:23.982Z,56.70
2019-03-20T16:06:53.846Z,56.40
2019-03-20T16:09:23.933Z,56.40
2019-03-20T16:11:53.906Z,57.10
2019-03-20T16:14:23.781Z,58.30
2019-03-20T16:16:53.646Z,58.30
2019-03-20T16:19:23.595Z,57.30
2019-03-20T16:21:54.038Z,57.30
2019-03-20T16:24:24.022Z,57.40
2019-03-20T16:26:55.387Z,58.10
2019-03-20T16:29:25.355Z,58.10
2019-03-20T16:31:55.362Z,57.30
2019-03-20T16:34:25.230Z,57.60
2019-03-20T16:36:55.095Z,57.90
2019-03-20T16:39:25.179Z,57.60
2019-03-20T16:41:55.026Z,58.30
2019-03-20T16:44:24.890Z,58.00
2019-03-20T16:46:54.804Z,58.30
2019-03-20T16:49:24.732Z,59.10
2019-03-20T16:51:54.637Z,58.50
2019-03-20T16:54:24.515Z,58.80
2019-03-20T16:56:54.545Z,59.00
2019-03-20T16:59:24.433Z,59.40
2019-03-20T17:01:54.328Z,58.80
2019-03-20T17:04:24.162Z,59.30
2019-03-20T17:06:54.034Z,59.70
2019-03-20T17:09:25.039Z,59.30
2019-03-20T17:11:54.955Z,59.80
2019-03-20T17:14:24.923Z,60.60
2019-03-20T17:16:54.782Z,60.80
2019-03-20T17:19:24.669Z,60.50
2019-03-20T17:21:54.562Z,62.50
2019-03-20T17:24:24.501Z,62.30
2019-03-20T17:26:54.363Z,63.90
2019-03-20T17:29:24.291Z,63.50
2019-03-20T17:31:54.126Z,65.00
2019-03-20T17:34:23.983Z,64.90
2019-03-20T17:36:53.856Z,64.90
2019-03-20T17:39:23.787Z,64.20
2019-03-20T17:41:53.750Z,63.70
2019-03-20T17:44:23.675Z,63.20
2019-03-20T17:46:54.078Z,63.70
2019-03-20T17:49:24.476Z,64.70
2019-03-20T17:51:54.742Z,65.70
2019-03-20T17:54:25.052Z,66.00
2019-03-20T17:56:55.525Z,66.20
2019-03-20T17:59:25.820Z,66.60
2019-03-20T18:01:57.249Z,67.20
2019-03-20T18:04:27.217Z,67.20
2019-03-20T18:06:57.510Z,67.40
2019-03-20T18:09:47.486Z,68.00
2019-03-20T18:12:18.396Z,70.00
2019-03-20T18:14:48.619Z,71.60
2019-03-20T18:17:18.978Z,72.30
2019-03-20T18:19:49.097Z,73.20
2019-03-20T18:22:19.376Z,74.40
2019-03-20T18:24:50.496Z,74.70
2019-03-20T18:27:20.459Z,75.50
2019-03-20T18:29:50.337Z,76.10
2019-03-20T18:32:20.207Z,76.40
2019-03-20T18:34:50.106Z,76.30
2019-03-20T18:37:20.016Z,79.20
2019-03-20T18:39:49.888Z,80.80
2019-03-20T18:42:19.798Z,82.20
2019-03-20T18:44:49.679Z,80.80
2019-03-20T18:47:19.553Z,81.40
2019-03-20T18:49:49.471Z,83.90
2019-03-20T18:52:19.320Z,83.80
2019-03-20T18:54:49.180Z,87.20
2019-03-20T18:57:19.107Z,88.40
2019-03-20T18:59:49.451Z,90.60
2019-03-20T19:02:19.330Z,93.00
2019-03-20T19:04:49.173Z,91.20
2019-03-20T19:07:19.187Z,91.80
2019-03-20T19:09:49.084Z,89.40
2019-03-20T19:12:19.029Z,91.20
2019-03-20T19:14:48.904Z,92.50
2019-03-20T19:17:18.883Z,92.30
2019-03-20T19:19:48.757Z,91.90
2019-03-20T19:22:18.656Z,90.30
2019-03-20T19:24:48.535Z,88.50
2019-03-20T19:27:18.389Z,81.80
2019-03-20T19:29:48.248Z,80.20
2019-03-20T19:32:18.149Z,81.60
2019-03-20T19:34:48.076Z,79.60
2019-03-20T19:37:17.971Z,80.10
2019-03-20T19:39:47.858Z,78.50
2019-03-20T19:42:20.143Z,79.20
2019-03-20T19:44:49.343Z,78.80
2019-03-20T19:47:20.209Z,79.70
2019-03-20T19:49:50.364Z,77.80
2019-03-20T19:52:20.424Z,78.50
2019-03-20T19:54:50.271Z,77.50
2019-03-20T19:57:20.247Z,77.90
2019-03-20T19:59:50.123Z,76.50
2019-03-20T20:02:19.986Z,74.40
2019-03-20T20:05:15.761Z,76.70
2019-03-20T20:07:40.863Z,78.00
2019-03-20T20:10:12.077Z,77.50
2019-03-20T20:12:42.123Z,80.90
2019-03-20T20:15:14.565Z,79.60
2019-03-20T20:17:46.826Z,85.10
2019-03-20T20:20:17.582Z,82.50
2019-03-20T20:22:47.453Z,85.10
2019-03-20T20:25:17.519Z,84.10
2019-03-20T20:27:47.494Z,82.70
2019-03-20T20:30:18.208Z,81.70
2019-03-20T20:32:48.169Z,79.20
2019-03-20T20:35:18.167Z,77.80
2019-03-20T20:37:48.034Z,75.90
2019-03-20T20:40:18.276Z,75.90
2019-03-20T20:42:48.236Z,76.70
2019-03-20T20:45:18.285Z,74.90
2019-03-20T20:47:48.223Z,74.30
2019-03-20T20:50:18.391Z,75.00
2019-03-20T20:52:48.340Z,75.80
2019-03-20T20:55:18.287Z,79.10
2019-03-20T20:57:48.191Z,79.20
2019-03-20T21:00:19.594Z,80.40
2019-03-20T21:02:49.538Z,82.90
2019-03-20T21:05:19.517Z,83.10
2019-03-20T21:07:50.738Z,83.90
2019-03-20T21:10:20.739Z,83.30
2019-03-20T21:12:56.444Z,85.00
2019-03-20T21:15:45.855Z,84.00
2019-03-20T21:18:52.819Z,84.40
2019-03-20T21:21:23.416Z,84.20
2019-03-20T21:24:23.040Z,80.80
2019-03-20T21:27:46.444Z,81.40
2019-03-20T21:30:39.916Z,85.30
2019-03-20T21:33:15.059Z,85.90
2019-03-20T21:36:20.448Z,88.20
2019-03-20T21:38:51.548Z,87.90
2019-03-20T21:41:56.275Z,86.80
2019-03-20T21:45:21.063Z,88.30
2019-03-20T21:47:51.531Z,88.10
2019-03-20T21:51:00.648Z,84.00
2019-03-20T21:54:14.354Z,83.50
2019-03-20T21:56:49.311Z,84.80
2019-03-20T21:59:34.368Z,81.50
2019-03-20T22:02:44.847Z,83.10
2019-03-20T22:05:35.382Z,89.50
2019-03-20T22:08:08.312Z,90.10
2019-03-20T22:11:17.263Z,90.00
2019-03-20T22:13:52.091Z,89.20
2019-03-20T22:17:04.092Z,86.90
2019-03-20T22:19:55.000Z,88.00
2019-03-20T22:23:04.726Z,85.40
2019-03-20T22:26:12.523Z,93.50
2019-03-20T22:29:07.190Z,96.40
2019-03-20T22:31:39.517Z,97.50
2019-03-20T22:34:38.395Z,98.00
2019-03-20T22:37:08.772Z,97.40
2019-03-20T22:40:30.775Z,96.30
2019-03-20T22:43:09.817Z,96.10
2019-03-20T22:46:16.011Z,95.80
2019-03-20T22:49:08.151Z,94.70
2019-03-20T22:52:12.419Z,93.60
2019-03-20T22:55:13.413Z,92.70
2019-03-20T22:58:30.225Z,92.40
2019-03-20T23:01:00.653Z,94.90
2019-03-20T23:03:43.778Z,98.10
2019-03-20T23:06:14.212Z,98.10
2019-03-20T23:08:44.741Z,97.00
2019-03-20T23:11:15.163Z,96.10
2019-03-20T23:13:45.553Z,95.80
2019-03-20T23:16:17.479Z,94.90
2019-03-20T23:18:47.985Z,95.00
2019-03-20T23:21:18.335Z,96.70
2019-03-20T23:23:48.728Z,93.30
2019-03-20T23:26:19.111Z,92.90
2019-03-20T23:28:49.582Z,96.00
2019-03-20T23:31:19.970Z,97.30
2019-03-20T23:33:50.332Z,99.90
2019-03-20T23:36:20.695Z,99.70
2019-03-20T23:38:51.176Z,99.90
2019-03-20T23:41:21.614Z,99.90
2019-03-20T23:43:53.143Z,99.90
2019-03-20T23:46:24.243Z,99.90
2019-03-20T23:49:04.261Z,99.90
2019-03-20T23:51:34.687Z,99.50
2019-03-20T23:54:05.270Z,99.90
2019-03-20T23:56:37.012Z,99.90
2019-03-20T23:59:07.870Z,99.10
